sensor_id;sensor_type;location;lat;lon;timestamp;temperature;humidity
11989;DHT22;6054;50.966;7.094;2023-05-07T00:01:38;24.20;53.00
11989;DHT22;6054;50.966;7.094;2023-05-07T00:04:05;24.20;53.00
11989;DHT22;6054;50.966;7.094;2023-05-07T00:06:32;24.30;52.90
11989;DHT22;6054;50.966;7.094;2023-05-07T00:09:01;24.20;53.00
11989;DHT22;6054;50.966;7.094;2023-05-07T00:11:28;24.40;53.10
11989;DHT22;6054;50.966;7.094;2023-05-07T00:13:54;24.20;53.10
11989;DHT22;6054;50.966;7.094;2023-05-07T00:16:21;24.30;53.10
11989;DHT22;6054;50.966;7.094;2023-05-07T00:18:48;24.20;53.00
11989;DHT22;6054;50.966;7.094;2023-05-07T00:21:15;24.20;53.10
11989;DHT22;6054;50.966;7.094;2023-05-07T00:23:42;24.20;53.10
11989;DHT22;6054;50.966;7.094;2023-05-07T00:26:10;24.20;53.10
11989;DHT22;6054;50.966;7.094;2023-05-07T00:28:37;24.10;53.10
11989;DHT22;6054;50.966;7.094;2023-05-07T00:31:04;24.10;53.00
11989;DHT22;6054;50.966;7.094;2023-05-07T00:33:30;24.10;52.90
11989;DHT22;6054;50.966;7.094;2023-05-07T00:35:57;24.10;52.80
11989;DHT22;6054;50.966;7.094;2023-05-07T00:38:26;24.40;53.00
11989;DHT22;6054;50.966;7.094;2023-05-07T00:40:53;24.10;52.80
11989;DHT22;6054;50.966;7.094;2023-05-07T00:43:21;24.10;52.90
11989;DHT22;6054;50.966;7.094;2023-05-07T00:45:48;24.10;53.00
11989;DHT22;6054;50.966;7.094;2023-05-07T00:48:15;24.00;53.00
11989;DHT22;6054;50.966;7.094;2023-05-07T00:50:43;24.00;53.10
11989;DHT22;6054;50.966;7.094;2023-05-07T00:53:10;24.00;53.10
11989;DHT22;6054;50.966;7.094;2023-05-07T00:55:37;24.00;52.80
11989;DHT22;6054;50.966;7.094;2023-05-07T00:58:04;24.00;53.10
11989;DHT22;6054;50.966;7.094;2023-05-07T01:00:32;24.00;52.90
11989;DHT22;6054;50.966;7.094;2023-05-07T01:02:59;24.10;53.00
11989;DHT22;6054;50.966;7.094;2023-05-07T01:05:26;24.00;53.10
11989;DHT22;6054;50.966;7.094;2023-05-07T01:07:55;23.90;53.50
11989;DHT22;6054;50.966;7.094;2023-05-07T01:10:23;24.00;53.60
11989;DHT22;6054;50.966;7.094;2023-05-07T01:12:51;23.90;53.40
11989;DHT22;6054;50.966;7.094;2023-05-07T01:15:18;23.90;53.70
11989;DHT22;6054;50.966;7.094;2023-05-07T01:17:46;23.90;53.40
11989;DHT22;6054;50.966;7.094;2023-05-07T01:20:13;23.90;53.50
11989;DHT22;6054;50.966;7.094;2023-05-07T01:22:43;23.90;53.50
11989;DHT22;6054;50.966;7.094;2023-05-07T01:25:10;23.90;53.50
11989;DHT22;6054;50.966;7.094;2023-05-07T01:27:37;23.90;53.50
11989;DHT22;6054;50.966;7.094;2023-05-07T01:30:04;23.90;53.50
11989;DHT22;6054;50.966;7.094;2023-05-07T01:32:37;23.90;53.70
11989;DHT22;6054;50.966;7.094;2023-05-07T01:35:07;23.90;53.70
11989;DHT22;6054;50.966;7.094;2023-05-07T01:37:36;23.90;53.70
11989;DHT22;6054;50.966;7.094;2023-05-07T01:40:05;23.90;53.60
11989;DHT22;6054;50.966;7.094;2023-05-07T01:42:33;23.90;53.60
11989;DHT22;6054;50.966;7.094;2023-05-07T01:45:00;23.80;53.20
11989;DHT22;6054;50.966;7.094;2023-05-07T01:47:27;24.10;53.50
11989;DHT22;6054;50.966;7.094;2023-05-07T01:49:55;23.80;53.60
11989;DHT22;6054;50.966;7.094;2023-05-07T01:52:22;23.80;53.70
11989;DHT22;6054;50.966;7.094;2023-05-07T01:54:50;24.10;53.70
11989;DHT22;6054;50.966;7.094;2023-05-07T01:57:18;23.80;53.30
11989;DHT22;6054;50.966;7.094;2023-05-07T01:59:45;23.90;53.40
11989;DHT22;6054;50.966;7.094;2023-05-07T02:02:12;23.80;53.30
11989;DHT22;6054;50.966;7.094;2023-05-07T02:04:38;23.70;53.20
11989;DHT22;6054;50.966;7.094;2023-05-07T02:07:05;23.70;53.20
11989;DHT22;6054;50.966;7.094;2023-05-07T02:09:32;23.70;53.40
11989;DHT22;6054;50.966;7.094;2023-05-07T02:11:59;23.70;53.50
11989;DHT22;6054;50.966;7.094;2023-05-07T02:14:27;23.60;53.60
11989;DHT22;6054;50.966;7.094;2023-05-07T02:16:54;23.80;53.70
11989;DHT22;6054;50.966;7.094;2023-05-07T02:19:20;23.60;53.30
11989;DHT22;6054;50.966;7.094;2023-05-07T02:21:47;23.60;53.50
11989;DHT22;6054;50.966;7.094;2023-05-07T02:24:14;23.60;53.20
11989;DHT22;6054;50.966;7.094;2023-05-07T02:26:41;23.90;53.60
11989;DHT22;6054;50.966;7.094;2023-05-07T02:29:07;23.60;53.70
11989;DHT22;6054;50.966;7.094;2023-05-07T02:31:36;23.60;53.10
11989;DHT22;6054;50.966;7.094;2023-05-07T02:34:02;23.50;53.70
11989;DHT22;6054;50.966;7.094;2023-05-07T02:36:29;23.50;53.20
11989;DHT22;6054;50.966;7.094;2023-05-07T02:38:56;23.50;53.30
11989;DHT22;6054;50.966;7.094;2023-05-07T02:41:23;23.50;53.40
11989;DHT22;6054;50.966;7.094;2023-05-07T02:43:49;23.50;53.30
11989;DHT22;6054;50.966;7.094;2023-05-07T02:46:16;23.50;53.40
11989;DHT22;6054;50.966;7.094;2023-05-07T02:48:44;23.40;53.50
11989;DHT22;6054;50.966;7.094;2023-05-07T02:51:11;23.40;53.50
11989;DHT22;6054;50.966;7.094;2023-05-07T02:53:38;23.40;53.30
11989;DHT22;6054;50.966;7.094;2023-05-07T02:56:05;23.40;53.20
11989;DHT22;6054;50.966;7.094;2023-05-07T02:58:32;23.40;53.20
11989;DHT22;6054;50.966;7.094;2023-05-07T03:00:59;23.30;53.00
11989;DHT22;6054;50.966;7.094;2023-05-07T03:03:25;23.30;53.00
11989;DHT22;6054;50.966;7.094;2023-05-07T03:05:53;23.30;53.00
11989;DHT22;6054;50.966;7.094;2023-05-07T03:08:21;23.30;53.20
11989;DHT22;6054;50.966;7.094;2023-05-07T03:10:48;23.30;53.50
11989;DHT22;6054;50.966;7.094;2023-05-07T03:13:14;23.20;53.40
11989;DHT22;6054;50.966;7.094;2023-05-07T03:15:41;23.20;53.60
11989;DHT22;6054;50.966;7.094;2023-05-07T03:18:08;23.20;53.60
11989;DHT22;6054;50.966;7.094;2023-05-07T03:20:35;23.20;53.50
11989;DHT22;6054;50.966;7.094;2023-05-07T03:23:03;23.20;53.60
11989;DHT22;6054;50.966;7.094;2023-05-07T03:25:30;23.20;53.20
11989;DHT22;6054;50.966;7.094;2023-05-07T03:27:56;23.20;53.20
11989;DHT22;6054;50.966;7.094;2023-05-07T03:30:23;23.20;53.20
11989;DHT22;6054;50.966;7.094;2023-05-07T03:32:50;23.10;53.20
11989;DHT22;6054;50.966;7.094;2023-05-07T03:35:17;23.30;53.10
11989;DHT22;6054;50.966;7.094;2023-05-07T03:37:44;23.20;53.10
11989;DHT22;6054;50.966;7.094;2023-05-07T03:40:12;23.10;53.20
11989;DHT22;6054;50.966;7.094;2023-05-07T03:42:39;23.10;53.20
11989;DHT22;6054;50.966;7.094;2023-05-07T03:45:07;23.10;53.30
11989;DHT22;6054;50.966;7.094;2023-05-07T03:47:34;23.10;53.50
11989;DHT22;6054;50.966;7.094;2023-05-07T03:50:01;23.00;53.80
11989;DHT22;6054;50.966;7.094;2023-05-07T03:52:27;23.10;54.00
11989;DHT22;6054;50.966;7.094;2023-05-07T03:54:54;23.00;53.30
11989;DHT22;6054;50.966;7.094;2023-05-07T03:57:22;23.00;53.10
11989;DHT22;6054;50.966;7.094;2023-05-07T03:59:49;23.00;53.10
11989;DHT22;6054;50.966;7.094;2023-05-07T04:02:16;23.00;53.10
11989;DHT22;6054;50.966;7.094;2023-05-07T04:04:42;22.90;53.10
11989;DHT22;6054;50.966;7.094;2023-05-07T04:07:09;22.90;53.20
11989;DHT22;6054;50.966;7.094;2023-05-07T04:09:36;23.00;53.40
11989;DHT22;6054;50.966;7.094;2023-05-07T04:12:03;22.90;53.30
11989;DHT22;6054;50.966;7.094;2023-05-07T04:14:31;22.90;53.20
11989;DHT22;6054;50.966;7.094;2023-05-07T04:16:58;22.90;53.20
11989;DHT22;6054;50.966;7.094;2023-05-07T04:19:25;22.90;53.20
11989;DHT22;6054;50.966;7.094;2023-05-07T04:21:52;22.90;53.20
11989;DHT22;6054;50.966;7.094;2023-05-07T04:24:18;23.00;53.30
11989;DHT22;6054;50.966;7.094;2023-05-07T04:26:45;22.90;53.30
11989;DHT22;6054;50.966;7.094;2023-05-07T04:29:12;22.90;53.40
11989;DHT22;6054;50.966;7.094;2023-05-07T04:31:40;22.90;53.40
11989;DHT22;6054;50.966;7.094;2023-05-07T04:34:09;22.80;53.30
11989;DHT22;6054;50.966;7.094;2023-05-07T04:36:37;22.80;53.30
11989;DHT22;6054;50.966;7.094;2023-05-07T04:39:04;22.80;53.50
11989;DHT22;6054;50.966;7.094;2023-05-07T04:41:31;22.80;53.50
11989;DHT22;6054;50.966;7.094;2023-05-07T04:43:57;23.00;53.60
11989;DHT22;6054;50.966;7.094;2023-05-07T04:46:25;22.80;53.70
11989;DHT22;6054;50.966;7.094;2023-05-07T04:48:53;22.90;53.70
11989;DHT22;6054;50.966;7.094;2023-05-07T04:51:20;22.80;53.70
11989;DHT22;6054;50.966;7.094;2023-05-07T04:53:46;22.80;53.60
11989;DHT22;6054;50.966;7.094;2023-05-07T04:56:13;22.80;53.70
11989;DHT22;6054;50.966;7.094;2023-05-07T04:58:40;22.80;53.90
11989;DHT22;6054;50.966;7.094;2023-05-07T05:01:06;22.90;54.00
11989;DHT22;6054;50.966;7.094;2023-05-07T05:03:33;22.90;54.10
11989;DHT22;6054;50.966;7.094;2023-05-07T05:06:01;22.90;54.10
11989;DHT22;6054;50.966;7.094;2023-05-07T05:08:29;22.90;54.10
11989;DHT22;6054;50.966;7.094;2023-05-07T05:10:56;22.90;54.30
11989;DHT22;6054;50.966;7.094;2023-05-07T05:13:23;22.90;54.40
11989;DHT22;6054;50.966;7.094;2023-05-07T05:15:50;22.90;54.50
11989;DHT22;6054;50.966;7.094;2023-05-07T05:18:17;23.00;54.50
11989;DHT22;6054;50.966;7.094;2023-05-07T05:20:43;23.00;54.70
11989;DHT22;6054;50.966;7.094;2023-05-07T05:23:11;23.00;54.80
11989;DHT22;6054;50.966;7.094;2023-05-07T05:25:38;23.00;54.90
11989;DHT22;6054;50.966;7.094;2023-05-07T05:28:05;23.20;55.10
11989;DHT22;6054;50.966;7.094;2023-05-07T05:30:32;23.00;54.90
11989;DHT22;6054;50.966;7.094;2023-05-07T05:32:59;23.10;55.10
11989;DHT22;6054;50.966;7.094;2023-05-07T05:35:26;23.10;55.00
11989;DHT22;6054;50.966;7.094;2023-05-07T05:37:52;23.10;55.00
11989;DHT22;6054;50.966;7.094;2023-05-07T05:40:20;23.10;54.90
11989;DHT22;6054;50.966;7.094;2023-05-07T05:42:47;23.20;55.00
11989;DHT22;6054;50.966;7.094;2023-05-07T05:45:14;23.20;55.20
11989;DHT22;6054;50.966;7.094;2023-05-07T05:47:41;23.20;55.40
11989;DHT22;6054;50.966;7.094;2023-05-07T05:50:08;23.20;55.30
11989;DHT22;6054;50.966;7.094;2023-05-07T05:52:35;23.30;55.60
11989;DHT22;6054;50.966;7.094;2023-05-07T05:55:02;23.30;55.50
11989;DHT22;6054;50.966;7.094;2023-05-07T05:57:30;23.30;55.60
11989;DHT22;6054;50.966;7.094;2023-05-07T05:59:57;23.30;55.70
11989;DHT22;6054;50.966;7.094;2023-05-07T06:02:24;23.30;55.80
11989;DHT22;6054;50.966;7.094;2023-05-07T06:04:50;23.40;56.00
11989;DHT22;6054;50.966;7.094;2023-05-07T06:07:17;23.40;56.00
11989;DHT22;6054;50.966;7.094;2023-05-07T06:09:44;23.40;56.00
11989;DHT22;6054;50.966;7.094;2023-05-07T06:12:11;23.50;56.00
11989;DHT22;6054;50.966;7.094;2023-05-07T06:14:39;23.60;56.20
11989;DHT22;6054;50.966;7.094;2023-05-07T06:17:06;23.50;56.60
11989;DHT22;6054;50.966;7.094;2023-05-07T06:19:33;23.50;56.10
11989;DHT22;6054;50.966;7.094;2023-05-07T06:22:00;23.50;55.90
11989;DHT22;6054;50.966;7.094;2023-05-07T06:24:28;23.50;55.80
11989;DHT22;6054;50.966;7.094;2023-05-07T06:26:55;23.60;55.70
11989;DHT22;6054;50.966;7.094;2023-05-07T06:29:23;23.50;55.80
11989;DHT22;6054;50.966;7.094;2023-05-07T06:31:52;23.60;56.00
11989;DHT22;6054;50.966;7.094;2023-05-07T06:34:19;23.60;56.00
11989;DHT22;6054;50.966;7.094;2023-05-07T06:36:46;23.60;55.90
11989;DHT22;6054;50.966;7.094;2023-05-07T06:39:12;23.60;56.00
11989;DHT22;6054;50.966;7.094;2023-05-07T06:41:39;23.60;56.00
11989;DHT22;6054;50.966;7.094;2023-05-07T06:44:06;23.70;56.10
11989;DHT22;6054;50.966;7.094;2023-05-07T06:46:32;23.80;56.30
11989;DHT22;6054;50.966;7.094;2023-05-07T06:49:01;23.80;56.50
11989;DHT22;6054;50.966;7.094;2023-05-07T06:51:28;23.80;56.40
11989;DHT22;6054;50.966;7.094;2023-05-07T06:53:55;23.90;56.20
11989;DHT22;6054;50.966;7.094;2023-05-07T06:56:22;23.90;56.00
11989;DHT22;6054;50.966;7.094;2023-05-07T06:58:49;24.00;55.80
11989;DHT22;6054;50.966;7.094;2023-05-07T07:01:15;24.00;55.40
11989;DHT22;6054;50.966;7.094;2023-05-07T07:03:42;24.00;55.20
11989;DHT22;6054;50.966;7.094;2023-05-07T07:06:10;24.10;55.30
11989;DHT22;6054;50.966;7.094;2023-05-07T07:08:37;24.10;55.30
11989;DHT22;6054;50.966;7.094;2023-05-07T07:11:04;24.20;55.30
11989;DHT22;6054;50.966;7.094;2023-05-07T07:13:31;24.30;54.70
11989;DHT22;6054;50.966;7.094;2023-05-07T07:15:58;24.40;54.40
11989;DHT22;6054;50.966;7.094;2023-05-07T07:18:24;24.40;54.10
11989;DHT22;6054;50.966;7.094;2023-05-07T07:20:51;24.40;53.10
11989;DHT22;6054;50.966;7.094;2023-05-07T07:23:19;24.50;53.20
11989;DHT22;6054;50.966;7.094;2023-05-07T07:25:46;24.50;53.30
11989;DHT22;6054;50.966;7.094;2023-05-07T07:28:13;24.60;53.00
11989;DHT22;6054;50.966;7.094;2023-05-07T07:30:39;24.70;52.30
11989;DHT22;6054;50.966;7.094;2023-05-07T07:33:06;24.70;52.30
11989;DHT22;6054;50.966;7.094;2023-05-07T07:35:33;24.80;52.00
11989;DHT22;6054;50.966;7.094;2023-05-07T07:37:59;24.90;51.80
11989;DHT22;6054;50.966;7.094;2023-05-07T07:40:28;24.90;51.60
11989;DHT22;6054;50.966;7.094;2023-05-07T07:42:56;25.00;51.90
11989;DHT22;6054;50.966;7.094;2023-05-07T07:45:23;25.10;52.10
11989;DHT22;6054;50.966;7.094;2023-05-07T07:47:50;25.10;51.50
11989;DHT22;6054;50.966;7.094;2023-05-07T07:50:17;25.20;51.40
11989;DHT22;6054;50.966;7.094;2023-05-07T07:52:43;25.30;51.70
11989;DHT22;6054;50.966;7.094;2023-05-07T07:55:10;25.40;51.60
11989;DHT22;6054;50.966;7.094;2023-05-07T07:57:38;25.50;51.10
11989;DHT22;6054;50.966;7.094;2023-05-07T08:00:06;25.50;50.30
11989;DHT22;6054;50.966;7.094;2023-05-07T08:02:33;25.60;50.30
11989;DHT22;6054;50.966;7.094;2023-05-07T08:05:00;25.70;49.80
11989;DHT22;6054;50.966;7.094;2023-05-07T08:07:26;25.70;49.50
11989;DHT22;6054;50.966;7.094;2023-05-07T08:09:53;25.80;49.60
11989;DHT22;6054;50.966;7.094;2023-05-07T08:12:20;25.90;49.30
11989;DHT22;6054;50.966;7.094;2023-05-07T08:14:48;26.10;48.90
11989;DHT22;6054;50.966;7.094;2023-05-07T08:17:15;26.20;48.90
11989;DHT22;6054;50.966;7.094;2023-05-07T08:19:42;26.30;48.80
11989;DHT22;6054;50.966;7.094;2023-05-07T08:22:09;26.30;48.30
11989;DHT22;6054;50.966;7.094;2023-05-07T08:24:36;26.50;48.50
11989;DHT22;6054;50.966;7.094;2023-05-07T08:27:03;26.50;48.50
11989;DHT22;6054;50.966;7.094;2023-05-07T08:29:29;26.50;47.90
11989;DHT22;6054;50.966;7.094;2023-05-07T08:31:57;26.60;47.80
11989;DHT22;6054;50.966;7.094;2023-05-07T08:34:24;26.70;47.80
11989;DHT22;6054;50.966;7.094;2023-05-07T08:36:51;26.80;47.90
11989;DHT22;6054;50.966;7.094;2023-05-07T08:39:17;26.80;47.60
11989;DHT22;6054;50.966;7.094;2023-05-07T08:41:45;27.00;47.30
11989;DHT22;6054;50.966;7.094;2023-05-07T08:44:13;27.00;46.60
11989;DHT22;6054;50.966;7.094;2023-05-07T08:46:41;26.90;45.90
11989;DHT22;6054;50.966;7.094;2023-05-07T08:49:10;27.00;46.10
11989;DHT22;6054;50.966;7.094;2023-05-07T08:51:37;27.00;46.00
11989;DHT22;6054;50.966;7.094;2023-05-07T08:54:04;27.00;46.30
11989;DHT22;6054;50.966;7.094;2023-05-07T08:56:32;27.10;46.80
11989;DHT22;6054;50.966;7.094;2023-05-07T08:58:59;27.10;46.50
11989;DHT22;6054;50.966;7.094;2023-05-07T09:01:26;27.20;46.50
11989;DHT22;6054;50.966;7.094;2023-05-07T09:03:53;27.20;47.10
11989;DHT22;6054;50.966;7.094;2023-05-07T09:06:21;27.30;47.20
11989;DHT22;6054;50.966;7.094;2023-05-07T09:08:52;27.30;46.90
11989;DHT22;6054;50.966;7.094;2023-05-07T09:11:20;27.40;46.40
11989;DHT22;6054;50.966;7.094;2023-05-07T09:13:48;27.50;45.90
11989;DHT22;6054;50.966;7.094;2023-05-07T09:16:15;27.50;45.70
11989;DHT22;6054;50.966;7.094;2023-05-07T09:18:43;27.50;45.90
11989;DHT22;6054;50.966;7.094;2023-05-07T09:21:10;27.50;46.00
11989;DHT22;6054;50.966;7.094;2023-05-07T09:23:39;27.60;46.00
11989;DHT22;6054;50.966;7.094;2023-05-07T09:26:06;27.60;46.10
11989;DHT22;6054;50.966;7.094;2023-05-07T09:28:39;27.60;45.80
11989;DHT22;6054;50.966;7.094;2023-05-07T09:31:06;27.70;46.50
11989;DHT22;6054;50.966;7.094;2023-05-07T09:33:33;27.80;45.20
11989;DHT22;6054;50.966;7.094;2023-05-07T09:36:03;27.80;45.30
11989;DHT22;6054;50.966;7.094;2023-05-07T09:38:33;27.90;45.30
11989;DHT22;6054;50.966;7.094;2023-05-07T09:41:06;27.90;45.90
11989;DHT22;6054;50.966;7.094;2023-05-07T09:43:46;28.10;45.50
11989;DHT22;6054;50.966;7.094;2023-05-07T09:46:14;28.10;45.30
11989;DHT22;6054;50.966;7.094;2023-05-07T09:48:43;28.20;45.30
11989;DHT22;6054;50.966;7.094;2023-05-07T09:51:21;28.20;45.30
11989;DHT22;6054;50.966;7.094;2023-05-07T09:53:53;28.40;44.80
11989;DHT22;6054;50.966;7.094;2023-05-07T09:56:24;28.50;44.00
11989;DHT22;6054;50.966;7.094;2023-05-07T09:58:53;28.60;43.00
11989;DHT22;6054;50.966;7.094;2023-05-07T10:01:20;28.70;43.20
11989;DHT22;6054;50.966;7.094;2023-05-07T10:03:49;28.70;43.10
11989;DHT22;6054;50.966;7.094;2023-05-07T10:06:16;28.90;43.00
11989;DHT22;6054;50.966;7.094;2023-05-07T10:08:44;29.00;43.20
11989;DHT22;6054;50.966;7.094;2023-05-07T10:11:11;28.90;42.50
11989;DHT22;6054;50.966;7.094;2023-05-07T10:13:40;28.90;41.30
11989;DHT22;6054;50.966;7.094;2023-05-07T10:16:07;29.00;41.20
11989;DHT22;6054;50.966;7.094;2023-05-07T10:18:35;29.20;41.10
11989;DHT22;6054;50.966;7.094;2023-05-07T10:21:07;29.20;41.30
11989;DHT22;6054;50.966;7.094;2023-05-07T10:23:35;29.10;40.50
11989;DHT22;6054;50.966;7.094;2023-05-07T10:26:05;29.20;41.10
11989;DHT22;6054;50.966;7.094;2023-05-07T10:28:36;29.40;40.70
11989;DHT22;6054;50.966;7.094;2023-05-07T10:31:14;29.30;40.90
11989;DHT22;6054;50.966;7.094;2023-05-07T10:33:42;29.40;41.00
11989;DHT22;6054;50.966;7.094;2023-05-07T10:36:11;29.60;41.40
11989;DHT22;6054;50.966;7.094;2023-05-07T10:38:38;29.40;40.50
11989;DHT22;6054;50.966;7.094;2023-05-07T10:41:06;29.40;39.80
11989;DHT22;6054;50.966;7.094;2023-05-07T10:43:40;29.50;39.90
11989;DHT22;6054;50.966;7.094;2023-05-07T10:46:15;29.50;39.70
11989;DHT22;6054;50.966;7.094;2023-05-07T10:49:12;29.60;39.80
11989;DHT22;6054;50.966;7.094;2023-05-07T10:51:39;29.60;39.60
11989;DHT22;6054;50.966;7.094;2023-05-07T10:54:22;29.70;39.60
11989;DHT22;6054;50.966;7.094;2023-05-07T10:56:50;29.70;39.00
11989;DHT22;6054;50.966;7.094;2023-05-07T10:59:37;29.70;38.50
11989;DHT22;6054;50.966;7.094;2023-05-07T11:02:10;29.70;38.60
11989;DHT22;6054;50.966;7.094;2023-05-07T11:04:40;29.90;38.90
11989;DHT22;6054;50.966;7.094;2023-05-07T11:07:25;29.90;38.60
11989;DHT22;6054;50.966;7.094;2023-05-07T11:10:03;29.90;38.90
11989;DHT22;6054;50.966;7.094;2023-05-07T11:12:53;30.00;38.60
11989;DHT22;6054;50.966;7.094;2023-05-07T11:15:37;30.20;37.90
11989;DHT22;6054;50.966;7.094;2023-05-07T11:18:06;30.10;37.30
11989;DHT22;6054;50.966;7.094;2023-05-07T11:20:46;30.30;37.70
11989;DHT22;6054;50.966;7.094;2023-05-07T11:26:20;30.30;37.80
11989;DHT22;6054;50.966;7.094;2023-05-07T11:28:47;30.40;38.10
11989;DHT22;6054;50.966;7.094;2023-05-07T11:31:21;30.40;37.30
11989;DHT22;6054;50.966;7.094;2023-05-07T11:33:49;30.50;36.90
11989;DHT22;6054;50.966;7.094;2023-05-07T11:36:18;30.40;37.00
11989;DHT22;6054;50.966;7.094;2023-05-07T11:38:46;30.50;36.90
11989;DHT22;6054;50.966;7.094;2023-05-07T11:41:13;30.50;36.80
11989;DHT22;6054;50.966;7.094;2023-05-07T11:43:57;30.50;36.90
11989;DHT22;6054;50.966;7.094;2023-05-07T11:46:25;30.50;36.50
11989;DHT22;6054;50.966;7.094;2023-05-07T11:48:54;30.60;37.00
11989;DHT22;6054;50.966;7.094;2023-05-07T11:51:22;30.60;37.30
11989;DHT22;6054;50.966;7.094;2023-05-07T11:53:51;30.70;37.20
11989;DHT22;6054;50.966;7.094;2023-05-07T11:56:18;30.80;36.40
11989;DHT22;6054;50.966;7.094;2023-05-07T11:58:46;31.00;37.60
11989;DHT22;6054;50.966;7.094;2023-05-07T12:01:14;30.80;36.90
11989;DHT22;6054;50.966;7.094;2023-05-07T12:03:43;30.80;37.00
11989;DHT22;6054;50.966;7.094;2023-05-07T12:06:13;30.80;36.40
11989;DHT22;6054;50.966;7.094;2023-05-07T12:08:41;31.00;36.40
11989;DHT22;6054;50.966;7.094;2023-05-07T12:11:09;30.90;37.10
11989;DHT22;6054;50.966;7.094;2023-05-07T12:13:37;30.90;37.10
11989;DHT22;6054;50.966;7.094;2023-05-07T12:16:05;30.80;36.50
11989;DHT22;6054;50.966;7.094;2023-05-07T12:18:32;30.80;36.70
11989;DHT22;6054;50.966;7.094;2023-05-07T12:20:59;30.80;36.40
11989;DHT22;6054;50.966;7.094;2023-05-07T12:23:28;30.80;36.20
11989;DHT22;6054;50.966;7.094;2023-05-07T12:25:55;30.80;36.30
11989;DHT22;6054;50.966;7.094;2023-05-07T12:28:21;30.90;36.70
11989;DHT22;6054;50.966;7.094;2023-05-07T12:30:50;30.90;36.30
11989;DHT22;6054;50.966;7.094;2023-05-07T12:33:17;30.90;36.10
11989;DHT22;6054;50.966;7.094;2023-05-07T12:35:49;30.80;35.80
11989;DHT22;6054;50.966;7.094;2023-05-07T12:38:17;30.90;35.90
11989;DHT22;6054;50.966;7.094;2023-05-07T12:40:47;31.00;36.30
11989;DHT22;6054;50.966;7.094;2023-05-07T12:43:16;30.90;36.50
11989;DHT22;6054;50.966;7.094;2023-05-07T12:45:44;31.10;36.60
11989;DHT22;6054;50.966;7.094;2023-05-07T12:48:11;30.90;36.70
11989;DHT22;6054;50.966;7.094;2023-05-07T12:50:38;31.10;37.20
11989;DHT22;6054;50.966;7.094;2023-05-07T12:53:05;30.90;36.40
11989;DHT22;6054;50.966;7.094;2023-05-07T12:55:40;30.90;35.90
11989;DHT22;6054;50.966;7.094;2023-05-07T12:58:15;31.00;36.10
11989;DHT22;6054;50.966;7.094;2023-05-07T13:00:42;30.90;36.30
11989;DHT22;6054;50.966;7.094;2023-05-07T13:03:09;30.90;36.10
11989;DHT22;6054;50.966;7.094;2023-05-07T13:05:36;30.90;36.40
11989;DHT22;6054;50.966;7.094;2023-05-07T13:08:03;31.10;37.30
11989;DHT22;6054;50.966;7.094;2023-05-07T13:10:30;30.90;38.60
11989;DHT22;6054;50.966;7.094;2023-05-07T13:12:58;31.00;39.50
11989;DHT22;6054;50.966;7.094;2023-05-07T13:15:26;31.10;40.00
11989;DHT22;6054;50.966;7.094;2023-05-07T13:17:53;31.00;39.60
11989;DHT22;6054;50.966;7.094;2023-05-07T13:20:20;31.00;38.80
11989;DHT22;6054;50.966;7.094;2023-05-07T13:22:47;31.00;38.80
11989;DHT22;6054;50.966;7.094;2023-05-07T13:25:14;31.00;38.10
11989;DHT22;6054;50.966;7.094;2023-05-07T13:27:40;31.20;37.20
11989;DHT22;6054;50.966;7.094;2023-05-07T13:30:07;31.10;37.30
11989;DHT22;6054;50.966;7.094;2023-05-07T13:32:35;31.00;37.20
11989;DHT22;6054;50.966;7.094;2023-05-07T13:35:02;31.30;37.10
11989;DHT22;6054;50.966;7.094;2023-05-07T13:37:30;31.10;37.30
11989;DHT22;6054;50.966;7.094;2023-05-07T13:39:56;31.10;37.30
11989;DHT22;6054;50.966;7.094;2023-05-07T13:42:23;31.40;36.90
11989;DHT22;6054;50.966;7.094;2023-05-07T13:44:50;31.20;35.60
11989;DHT22;6054;50.966;7.094;2023-05-07T13:47:16;31.30;35.20
11989;DHT22;6054;50.966;7.094;2023-05-07T13:49:44;31.20;35.20
11989;DHT22;6054;50.966;7.094;2023-05-07T13:52:14;31.20;35.30
11989;DHT22;6054;50.966;7.094;2023-05-07T13:54:41;31.10;35.40
11989;DHT22;6054;50.966;7.094;2023-05-07T13:57:08;31.10;35.00
11989;DHT22;6054;50.966;7.094;2023-05-07T13:59:35;31.00;35.20
11989;DHT22;6054;50.966;7.094;2023-05-07T14:02:01;31.00;36.30
11989;DHT22;6054;50.966;7.094;2023-05-07T14:04:30;31.10;37.60
11989;DHT22;6054;50.966;7.094;2023-05-07T14:06:58;30.90;38.60
11989;DHT22;6054;50.966;7.094;2023-05-07T14:09:25;30.90;39.70
11989;DHT22;6054;50.966;7.094;2023-05-07T14:11:52;30.90;40.50
11989;DHT22;6054;50.966;7.094;2023-05-07T14:14:19;30.80;40.00
11989;DHT22;6054;50.966;7.094;2023-05-07T14:16:45;30.70;41.00
11989;DHT22;6054;50.966;7.094;2023-05-07T14:19:12;30.60;42.50
11989;DHT22;6054;50.966;7.094;2023-05-07T14:21:39;30.30;44.60
11989;DHT22;6054;50.966;7.094;2023-05-07T14:24:07;30.00;45.70
11989;DHT22;6054;50.966;7.094;2023-05-07T14:26:35;29.60;46.90
11989;DHT22;6054;50.966;7.094;2023-05-07T14:29:02;29.40;48.10
11989;DHT22;6054;50.966;7.094;2023-05-07T14:31:28;29.10;49.10
11989;DHT22;6054;50.966;7.094;2023-05-07T14:33:55;29.00;50.30
11989;DHT22;6054;50.966;7.094;2023-05-07T14:36:23;28.80;51.10
11989;DHT22;6054;50.966;7.094;2023-05-07T14:38:51;28.80;51.60
11989;DHT22;6054;50.966;7.094;2023-05-07T14:41:20;28.60;52.30
11989;DHT22;6054;50.966;7.094;2023-05-07T14:43:47;28.30;52.60
11989;DHT22;6054;50.966;7.094;2023-05-07T14:46:15;28.30;52.80
11989;DHT22;6054;50.966;7.094;2023-05-07T14:48:43;28.20;53.00
11989;DHT22;6054;50.966;7.094;2023-05-07T14:51:10;28.10;53.00
11989;DHT22;6054;50.966;7.094;2023-05-07T14:53:37;28.00;52.80
11989;DHT22;6054;50.966;7.094;2023-05-07T14:56:04;27.90;53.40
11989;DHT22;6054;50.966;7.094;2023-05-07T14:58:32;27.90;52.90
11989;DHT22;6054;50.966;7.094;2023-05-07T15:00:59;27.80;52.70
11989;DHT22;6054;50.966;7.094;2023-05-07T15:03:27;28.00;52.30
11989;DHT22;6054;50.966;7.094;2023-05-07T15:05:53;27.70;52.20
11989;DHT22;6054;50.966;7.094;2023-05-07T15:08:20;27.80;52.00
11989;DHT22;6054;50.966;7.094;2023-05-07T15:10:47;27.60;51.90
11989;DHT22;6054;50.966;7.094;2023-05-07T15:13:14;27.60;51.80
11989;DHT22;6054;50.966;7.094;2023-05-07T15:15:42;27.60;52.30
11989;DHT22;6054;50.966;7.094;2023-05-07T15:18:10;27.60;52.80
11989;DHT22;6054;50.966;7.094;2023-05-07T15:20:36;27.50;53.10
11989;DHT22;6054;50.966;7.094;2023-05-07T15:23:03;27.70;53.40
11989;DHT22;6054;50.966;7.094;2023-05-07T15:25:31;27.60;53.50
11989;DHT22;6054;50.966;7.094;2023-05-07T15:27:59;27.60;53.80
11989;DHT22;6054;50.966;7.094;2023-05-07T15:30:25;27.60;54.00
11989;DHT22;6054;50.966;7.094;2023-05-07T15:32:54;27.70;54.10
11989;DHT22;6054;50.966;7.094;2023-05-07T15:35:21;27.60;54.10
11989;DHT22;6054;50.966;7.094;2023-05-07T15:37:47;27.70;54.20
11989;DHT22;6054;50.966;7.094;2023-05-07T15:40:15;27.70;54.30
11989;DHT22;6054;50.966;7.094;2023-05-07T15:42:43;27.70;53.80
11989;DHT22;6054;50.966;7.094;2023-05-07T15:45:11;27.90;53.40
11989;DHT22;6054;50.966;7.094;2023-05-07T15:47:38;27.80;53.60
11989;DHT22;6054;50.966;7.094;2023-05-07T15:50:07;27.70;53.30
11989;DHT22;6054;50.966;7.094;2023-05-07T15:52:34;27.70;53.50